DW2770 Cefalu IT current weather conditions

sailwx.info

Wind from 180 at 2 knots gusting 2

Air temperature 13.3° C
Dewpoint 9.0° C

Last reported at 2017-Nov-25 00:20 UTC.
Time now 2017-Nov-25 04:05 UTC

Location: N 38°02' E 014°02'.
View on Google Maps.

See reports from other nearby stations

  
Tides and Currents Weather Stations Pressure Air Temp Water Temp Dewpoint Dewpoint Depression Visibility Wind Speed Wind Dir Waves Ship Positions
date/time (UTC)wind fromknots sea level pressurealtimeterstation pressurevisibilityair tempwater tempwave heightnotes
2017-Nov-25 00:20 180 2 gusting 2 13.3
2017-Nov-24 23:10 178 2 gusting 4 13.3
2017-Nov-24 23:00 202 2 gusting 2 13.3
2017-Nov-24 22:30 180 2 gusting 2 13.3
2017-Nov-24 22:10 180 2 gusting 2 13.3
2017-Nov-24 22:00 090 1 gusting 4 13.3
2017-Nov-24 21:50 173 13.3
2017-Nov-24 21:40 202 1 gusting 2 13.3
2017-Nov-24 21:30 180 0 gusting 5 13.3
2017-Nov-24 21:20 180 4 gusting 5 13.3
2017-Nov-24 21:10 180 2 gusting 5 12.8
2017-Nov-24 21:00 180 3 gusting 5 12.8
2017-Nov-24 20:40 175 3 gusting 4 12.2
2017-Nov-24 20:20 196 12.8
2017-Nov-24 19:50 090 12.8
2017-Nov-24 19:40 097 0 gusting 0 12.8
2017-Nov-24 19:30 158 1 gusting 2 13.3
2017-Nov-24 18:50 158 2 gusting 4 13.3
2017-Nov-24 18:30 180 2 gusting 2 13.9
2017-Nov-24 18:20 158 1 gusting 1 13.3
2017-Nov-24 18:00 068 13.3
2017-Nov-24 17:50 135 2 gusting 2 13.3
2017-Nov-24 17:40 090 13.3
2017-Nov-24 17:10 158 1 gusting 1 13.9
2017-Nov-24 16:50 022 13.9
2017-Nov-24 16:40 022 13.9
2017-Nov-24 16:30 315 13.9
2017-Nov-24 16:20 13.9
2017-Nov-24 16:10 345 14.4
2017-Nov-24 15:50 022 14.4
2017-Nov-24 15:40 023 0 gusting 0 15.0
2017-Nov-24 15:30 15.0
2017-Nov-24 15:10 076 15.6
2017-Nov-24 14:40 056 0 gusting 1 15.6
2017-Nov-24 14:31 068 1 gusting 2 16.1
2017-Nov-24 00:01 185 5 gusting 6 12.8
2017-Nov-23 23:41 180 2 gusting 2 13.3
2017-Nov-23 23:30 168 2 gusting 2 13.3
2017-Nov-23 22:51 180 3 gusting 5 13.3
2017-Nov-23 20:20 180 4 gusting 6 13.3
2017-Nov-23 19:40 180 4 gusting 5 13.3
2017-Nov-23 19:30 180 3 gusting 4 13.9
2017-Nov-23 19:20 180 4 gusting 4 13.9
2017-Nov-23 19:10 202 2 gusting 4 13.9
2017-Nov-23 19:00 180 1 gusting 1 13.9
2017-Nov-23 18:50 180 0 gusting 1 13.9
2017-Nov-23 18:40 202 1 gusting 1 13.3
2017-Nov-23 18:20 180 0 gusting 2 13.9
2017-Nov-23 18:10 202 0 gusting 4 13.3
2017-Nov-23 18:00 180 1 gusting 4 13.3
2017-Nov-23 17:50 068 13.9
2017-Nov-23 09:10 068 1 gusting 1 16.7
2017-Nov-23 08:50 068 1 gusting 1 15.6
2017-Nov-23 08:40 202 15.6
2017-Nov-23 08:30 225 0 gusting 1 15.6
2017-Nov-23 08:00 068 14.4
2017-Nov-23 07:40 112 13.9